Clove Hill, Mississippi
Current Conditions -  °F | °C
As of 1:35 PM on Tuesday 21 Oct 2014 (Local Time) from KCKM Reporting Station
Clear Clear  
Wind Chill: 24°   Ceiling: Unl
Heat Index: 24°   Visibility: 10mi
Dew Point: 13°   Wind: 5mph
Humidity: 50%   Direction: 350°N
Pressure: 30.06"   Gusts: NA
Location:  34.2601°N, 90.487°W
Report Text: KCKM 211835Z AUTO 35004KT 10SM CLR 24/13 A3006 RMK AO1
Loading
Personal Weather Stations






























Interactive Weather Map
Tropical Storm Tracking
New forecast layout! Learn more

10-Day Weather Forecast

Advertisements
Track Severe Weather on mobile